createdAt,value
2022-08-07T00:02:39.984Z,22.14
2022-08-07T00:05:07.268Z,22.17
2022-08-07T00:07:41.188Z,22.24
2022-08-07T00:10:25.882Z,22.24
2022-08-07T00:13:01.213Z,22.22
2022-08-07T00:15:37.768Z,22.19
2022-08-07T00:18:23.960Z,22.13
2022-08-07T00:21:03.515Z,22.23
2022-08-07T00:23:41.687Z,22.23
2022-08-07T00:26:31.358Z,22.18
2022-08-07T00:29:03.263Z,22.15
2022-08-07T00:31:41.194Z,22.11
2022-08-07T00:34:11.764Z,22.11
2022-08-07T00:36:42.724Z,22.20
2022-08-07T00:39:17.214Z,22.19
2022-08-07T00:42:01.923Z,22.20
2022-08-07T00:44:38.237Z,22.11
2022-08-07T00:47:15.642Z,22.16
2022-08-07T00:50:21.217Z,22.18
2022-08-07T00:52:53.137Z,22.18
2022-08-07T00:55:25.475Z,22.13
2022-08-07T00:58:14.494Z,22.12
2022-08-07T01:00:54.039Z,22.16
2022-08-07T01:03:54.711Z,22.20
2022-08-07T01:06:15.840Z,22.26
2022-08-07T01:08:53.299Z,22.07
2022-08-07T01:12:09.778Z,21.70
2022-08-07T01:14:16.878Z,21.47
2022-08-07T01:16:48.067Z,21.48
2022-08-07T01:19:24.043Z,21.42
2022-08-07T01:21:57.078Z,21.46
2022-08-07T01:24:31.832Z,21.77
2022-08-07T01:27:03.445Z,21.45
2022-08-07T01:29:35.405Z,21.78
2022-08-07T01:32:12.318Z,21.83
2022-08-07T01:34:47.678Z,21.90
2022-08-07T01:37:25.155Z,21.94
2022-08-07T01:40:01.148Z,21.72
2022-08-07T01:42:57.669Z,21.48
2022-08-07T01:45:36.892Z,21.57
2022-08-07T01:48:30.706Z,21.62
2022-08-07T01:51:24.574Z,20.69
2022-08-07T01:54:11.652Z,21.20
2022-08-07T01:56:59.092Z,21.29
2022-08-07T01:59:35.454Z,21.22
2022-08-07T02:02:11.425Z,21.10
2022-08-07T02:05:16.049Z,20.79
2022-08-07T02:08:13.946Z,21.06
2022-08-07T02:10:55.369Z,21.19
2022-08-07T02:14:00.730Z,21.03
2022-08-07T02:16:33.001Z,20.93
2022-08-07T02:20:06.899Z,20.41
2022-08-07T02:22:00.714Z,20.31
2022-08-07T02:24:34.382Z,19.91
2022-08-07T02:27:04.686Z,19.10
2022-08-07T02:29:43.436Z,18.94
2022-08-07T02:32:30.218Z,19.44
2022-08-07T02:35:02.208Z,19.59
2022-08-07T02:37:43.862Z,19.64
2022-08-07T02:40:31.077Z,18.67
2022-08-07T02:43:08.246Z,17.27
2022-08-07T02:46:00.931Z,16.62
2022-08-07T02:48:35.359Z,16.49
2022-08-07T02:51:29.078Z,16.29
2022-08-07T02:54:10.770Z,16.93
2022-08-07T02:56:45.514Z,18.10
2022-08-07T02:59:23.876Z,18.17
2022-08-07T03:02:03.137Z,18.98
2022-08-07T03:04:34.111Z,19.01
2022-08-07T03:07:10.671Z,18.94
2022-08-07T03:09:47.218Z,19.05
2022-08-07T03:12:22.651Z,19.23
2022-08-07T03:15:09.050Z,18.81
2022-08-07T03:17:53.621Z,19.37
2022-08-07T03:20:28.442Z,19.74
2022-08-07T03:23:00.250Z,19.50
2022-08-07T03:25:40.209Z,19.37
2022-08-07T03:28:37.431Z,19.82
2022-08-07T03:31:24.492Z,19.85
2022-08-07T03:34:03.690Z,20.21
2022-08-07T03:36:37.502Z,20.23
2022-08-07T03:39:15.364Z,20.41
2022-08-07T03:41:50.778Z,20.55
2022-08-07T03:44:34.247Z,20.71
2022-08-07T03:47:13.692Z,20.52
2022-08-07T03:49:53.530Z,20.76
2022-08-07T03:52:31.081Z,20.66
2022-08-07T03:55:07.839Z,20.37
2022-08-07T03:58:35.501Z,18.91
2022-08-07T04:00:46.156Z,17.76
2022-08-07T04:03:18.140Z,18.47
2022-08-07T04:05:58.653Z,17.51
2022-08-07T04:08:31.898Z,18.08
2022-08-07T04:11:15.009Z,19.34
2022-08-07T04:14:09.872Z,19.69
2022-08-07T04:16:58.710Z,19.98
2022-08-07T04:19:51.018Z,19.97
2022-08-07T04:22:22.887Z,19.69
2022-08-07T04:24:54.194Z,19.87
2022-08-07T04:27:25.710Z,20.08
2022-08-07T04:30:04.633Z,19.72
2022-08-07T04:32:47.935Z,19.14
2022-08-07T04:35:23.190Z,18.98
2022-08-07T04:38:03.092Z,18.99
2022-08-07T04:40:51.487Z,18.81
2022-08-07T04:44:10.452Z,18.90
2022-08-07T04:47:08.105Z,19.09
2022-08-07T04:50:04.019Z,19.44
2022-08-07T04:52:57.308Z,19.74
2022-08-07T04:58:16.148Z,19.57
2022-08-07T05:02:07.072Z,19.57
2022-08-07T05:05:52.561Z,19.57
2022-08-07T05:08:14.061Z,19.37
2022-08-07T05:10:51.183Z,19.05
2022-08-07T05:14:56.173Z,19.43
2022-08-07T05:16:34.503Z,19.54
2022-08-07T05:19:32.750Z,19.10
2022-08-07T05:22:12.479Z,18.81
2022-08-07T05:24:52.476Z,18.86
2022-08-07T05:28:03.224Z,18.92
2022-08-07T05:30:29.922Z,18.70
2022-08-07T05:33:03.270Z,18.88
2022-08-07T05:35:41.624Z,19.09
2022-08-07T05:38:59.660Z,19.52
2022-08-07T05:41:14.336Z,18.92
2022-08-07T05:44:12.071Z,18.66
2022-08-07T05:46:51.102Z,18.52
2022-08-07T05:49:26.780Z,18.63
2022-08-07T05:51:57.854Z,19.23
2022-08-07T05:54:53.224Z,19.35
2022-08-07T05:57:22.599Z,19.62
2022-08-07T06:00:02.005Z,19.26
2022-08-07T06:02:43.039Z,19.55
2022-08-07T06:05:16.763Z,19.82
2022-08-07T06:08:29.954Z,19.98
2022-08-07T06:10:45.667Z,20.04
2022-08-07T06:13:16.933Z,19.99
2022-08-07T06:15:50.660Z,20.25
2022-08-07T06:18:28.108Z,20.28
2022-08-07T06:22:16.732Z,20.26
2022-08-07T06:24:37.844Z,20.34
2022-08-07T06:26:45.211Z,20.34
2022-08-07T06:29:18.716Z,20.38
2022-08-07T06:31:50.685Z,20.28
2022-08-07T06:34:30.419Z,19.90
2022-08-07T06:37:02.583Z,19.85
2022-08-07T06:40:17.715Z,19.39
2022-08-07T06:42:40.353Z,19.48
2022-08-07T06:45:21.259Z,19.78
2022-08-07T06:47:59.181Z,19.85
2022-08-07T06:50:47.986Z,20.09
2022-08-07T06:55:29.248Z,20.12
2022-08-07T06:56:18.907Z,19.91
2022-08-07T07:00:12.030Z,20.07
2022-08-07T07:01:50.971Z,20.23
2022-08-07T07:04:28.656Z,20.20
2022-08-07T07:07:10.631Z,19.93
2022-08-07T07:09:54.855Z,18.93
2022-08-07T07:12:48.484Z,19.20
2022-08-07T07:15:37.818Z,19.17
2022-08-07T07:18:47.187Z,19.40
2022-08-07T07:21:20.680Z,19.14
2022-08-07T07:24:09.660Z,19.03
2022-08-07T07:26:51.921Z,18.90
2022-08-07T07:29:56.318Z,18.78
2022-08-07T07:32:18.319Z,18.81
2022-08-07T07:34:53.534Z,18.79
2022-08-07T07:37:45.428Z,18.90
2022-08-07T07:40:21.003Z,18.83
2022-08-07T07:43:11.585Z,18.65
2022-08-07T07:46:38.104Z,18.60
2022-08-07T07:48:41.642Z,17.94
2022-08-07T07:51:19.883Z,18.33
2022-08-07T07:53:52.753Z,18.69
2022-08-07T07:56:30.047Z,18.71
2022-08-07T07:59:03.230Z,18.30
2022-08-07T08:02:05.238Z,18.09
2022-08-07T08:04:29.636Z,18.00
2022-08-07T08:07:02.823Z,18.09
2022-08-07T08:09:52.358Z,18.24
2022-08-07T08:12:52.088Z,18.76
2022-08-07T08:15:23.308Z,18.78
2022-08-07T08:18:18.049Z,19.03
2022-08-07T08:20:51.663Z,19.17
2022-08-07T08:23:44.246Z,19.25
2022-08-07T08:26:37.755Z,18.98
2022-08-07T08:29:09.960Z,18.93
2022-08-07T08:32:10.184Z,19.15
2022-08-07T08:34:39.107Z,19.30
2022-08-07T08:38:01.129Z,19.32
2022-08-07T08:40:04.701Z,19.27
2022-08-07T08:42:59.939Z,19.45
2022-08-07T08:45:59.563Z,19.49
2022-08-07T08:48:52.580Z,19.49
2022-08-07T08:51:49.580Z,19.36
2022-08-07T08:54:55.572Z,19.13
2022-08-07T08:58:24.713Z,18.82
2022-08-07T09:01:02.065Z,19.08
2022-08-07T09:03:55.259Z,18.66
2022-08-07T09:06:37.990Z,18.45
2022-08-07T09:09:30.092Z,19.09
2022-08-07T09:12:33.780Z,19.40
2022-08-07T09:16:20.183Z,19.34
2022-08-07T09:18:24.743Z,19.24
2022-08-07T09:22:09.992Z,19.01
2022-08-07T09:25:00.635Z,19.02
2022-08-07T09:28:00.092Z,19.24
2022-08-07T09:30:35.011Z,19.63
2022-08-07T09:33:52.469Z,19.78
2022-08-07T09:37:05.319Z,19.84
2022-08-07T09:39:57.882Z,19.68
2022-08-07T09:43:05.330Z,19.41
2022-08-07T09:47:49.424Z,19.28
2022-08-07T09:50:01.495Z,18.95
2022-08-07T09:52:34.217Z,19.29
2022-08-07T09:55:29.900Z,19.30
2022-08-07T09:58:42.308Z,19.56
2022-08-07T10:01:53.162Z,19.47
2022-08-07T10:04:33.311Z,19.53
2022-08-07T10:07:56.816Z,19.56
2022-08-07T10:11:07.763Z,19.61
2022-08-07T10:14:01.474Z,20.02
2022-08-07T10:16:53.651Z,20.28
2022-08-07T10:19:38.544Z,20.27
2022-08-07T10:22:24.897Z,20.46
2022-08-07T10:25:23.133Z,20.33
2022-08-07T10:28:16.979Z,20.58
2022-08-07T10:31:31.432Z,20.27
2022-08-07T10:34:33.643Z,20.04
2022-08-07T10:37:18.358Z,20.06
2022-08-07T10:40:14.160Z,19.92
2022-08-07T10:43:34.464Z,20.16
2022-08-07T10:46:20.844Z,20.17
2022-08-07T10:49:11.195Z,20.29
2022-08-07T10:52:01.748Z,20.41
2022-08-07T10:55:07.854Z,20.33
2022-08-07T10:58:05.511Z,19.91
2022-08-07T11:00:43.476Z,18.72
2022-08-07T11:04:17.061Z,19.53
2022-08-07T11:08:00.338Z,19.47
2022-08-07T11:10:33.264Z,18.70
2022-08-07T11:14:41.755Z,19.65
2022-08-07T11:16:11.464Z,18.97
2022-08-07T11:18:53.914Z,19.80
2022-08-07T11:21:40.841Z,19.79
2022-08-07T11:24:22.072Z,19.75
2022-08-07T11:27:04.981Z,18.74
2022-08-07T11:30:17.695Z,19.41
2022-08-07T11:33:14.197Z,18.73
2022-08-07T11:36:14.579Z,19.77
2022-08-07T11:39:06.851Z,19.63
2022-08-07T11:42:21.491Z,19.98
2022-08-07T11:45:35.474Z,20.49
2022-08-07T11:48:33.219Z,20.32
2022-08-07T11:51:11.349Z,19.50
2022-08-07T11:54:38.564Z,19.84
2022-08-07T11:58:00.879Z,19.59
2022-08-07T12:00:42.323Z,20.13
2022-08-07T12:03:59.586Z,21.02
2022-08-07T12:07:09.070Z,21.31
2022-08-07T12:09:58.518Z,21.50
2022-08-07T12:12:56.791Z,21.71
2022-08-07T12:16:05.267Z,22.07
2022-08-07T12:19:08.726Z,21.80
2022-08-07T12:21:55.825Z,22.19
2022-08-07T12:26:21.636Z,22.11
2022-08-07T12:28:30.977Z,22.06
2022-08-07T12:31:10.222Z,22.11
2022-08-07T12:34:01.486Z,22.12
2022-08-07T12:36:33.963Z,21.72
2022-08-07T12:39:38.815Z,22.06
2022-08-07T12:42:00.093Z,20.45
2022-08-07T12:44:33.691Z,19.73
2022-08-07T12:47:21.496Z,19.87
2022-08-07T12:50:34.183Z,20.77
2022-08-07T12:54:03.021Z,21.53
2022-08-07T12:56:43.440Z,21.79
2022-08-07T12:59:33.376Z,22.25
2022-08-07T13:02:33.303Z,22.56
2022-08-07T13:06:05.032Z,22.44
2022-08-07T13:08:32.898Z,22.85
2022-08-07T13:11:21.341Z,23.19
2022-08-07T13:13:58.267Z,23.82
2022-08-07T13:16:51.003Z,23.66
2022-08-07T13:19:50.629Z,23.68
2022-08-07T13:22:42.165Z,24.02
2022-08-07T13:25:24.318Z,24.76
2022-08-07T13:28:18.381Z,24.97
2022-08-07T13:31:32.190Z,24.65
2022-08-07T13:34:32.696Z,25.11
2022-08-07T13:37:20.056Z,25.60
2022-08-07T13:40:35.198Z,25.18
2022-08-07T13:43:03.863Z,26.00
2022-08-07T13:46:10.948Z,25.77
2022-08-07T13:48:34.497Z,26.97
2022-08-07T13:51:28.560Z,27.31
2022-08-07T13:54:03.078Z,26.80
2022-08-07T13:56:40.725Z,26.34
2022-08-07T13:59:27.135Z,27.18
2022-08-07T14:02:03.851Z,25.97
2022-08-07T14:04:49.696Z,26.61
2022-08-07T14:07:23.625Z,26.39
2022-08-07T14:10:12.052Z,27.55
2022-08-07T14:12:55.434Z,28.29
2022-08-07T14:15:42.220Z,28.69
2022-08-07T14:18:49.896Z,29.17
2022-08-07T14:22:03.508Z,29.88
2022-08-07T14:24:44.651Z,31.01
2022-08-07T14:28:12.930Z,31.28
2022-08-07T14:30:11.962Z,31.72
2022-08-07T14:33:04.624Z,30.94
2022-08-07T14:35:45.579Z,29.29
2022-08-07T14:38:31.297Z,28.90
2022-08-07T14:41:15.146Z,30.45
2022-08-07T14:43:57.810Z,29.15
2022-08-07T14:46:32.383Z,29.01
2022-08-07T14:49:17.273Z,29.04
2022-08-07T14:54:54.056Z,27.43
2022-08-07T14:57:29.006Z,27.82
2022-08-07T15:00:20.601Z,28.12
2022-08-07T15:12:10.672Z,28.78
2022-08-07T15:15:22.418Z,30.57
2022-08-07T15:20:55.154Z,28.56
2022-08-07T15:26:34.948Z,30.41
2022-08-07T15:30:10.162Z,29.74
2022-08-07T15:32:05.215Z,32.48
2022-08-07T15:38:04.797Z,34.00
2022-08-07T15:40:35.443Z,32.16
2022-08-07T15:43:33.065Z,31.71
2022-08-07T15:49:15.524Z,31.74
2022-08-07T15:54:41.038Z,31.27
2022-08-07T15:57:27.962Z,29.76
2022-08-07T16:00:07.755Z,30.56
2022-08-07T16:02:47.005Z,29.21
2022-08-07T16:05:23.075Z,30.52
2022-08-07T16:08:32.778Z,29.10
2022-08-07T16:11:27.265Z,28.85
2022-08-07T16:14:19.457Z,30.58
2022-08-07T16:17:15.027Z,29.06
2022-08-07T16:20:34.302Z,31.11
2022-08-07T16:23:54.064Z,31.19
2022-08-07T16:26:30.833Z,31.14
2022-08-07T16:30:05.379Z,30.69
2022-08-07T16:32:33.218Z,30.72
2022-08-07T16:35:59.394Z,28.85
2022-08-07T16:38:57.330Z,29.63
2022-08-07T16:41:41.509Z,30.89
2022-08-07T16:44:55.455Z,31.02
2022-08-07T16:47:56.533Z,31.79
2022-08-07T16:51:13.406Z,31.70
2022-08-07T16:54:02.945Z,30.70
2022-08-07T16:56:46.168Z,29.33
2022-08-07T16:59:46.962Z,28.63
2022-08-07T17:02:51.242Z,28.72
2022-08-07T17:06:19.876Z,27.84
2022-08-07T17:09:04.334Z,27.30
2022-08-07T17:12:01.547Z,29.09
2022-08-07T17:15:01.746Z,28.12
2022-08-07T17:17:48.349Z,28.08
2022-08-07T17:20:38.627Z,28.35
2022-08-07T17:23:39.136Z,28.44
2022-08-07T17:26:30.705Z,28.83
2022-08-07T17:30:14.048Z,27.95
2022-08-07T17:32:58.550Z,27.05
2022-08-07T17:35:51.177Z,26.52
2022-08-07T17:38:33.859Z,26.49
2022-08-07T17:42:00.762Z,25.56
2022-08-07T17:44:06.500Z,24.81
2022-08-07T17:47:16.587Z,24.44
2022-08-07T17:50:02.963Z,24.30
2022-08-07T17:52:40.336Z,24.00
2022-08-07T17:55:55.620Z,24.21
2022-08-07T17:58:30.686Z,24.39
2022-08-07T18:01:20.879Z,24.57
2022-08-07T18:04:31.155Z,24.57
2022-08-07T18:07:22.672Z,25.00
2022-08-07T18:10:07.602Z,25.23
2022-08-07T18:13:20.568Z,25.58
2022-08-07T18:16:31.110Z,24.34
2022-08-07T18:21:12.558Z,24.74
2022-08-07T18:22:16.953Z,24.48
2022-08-07T18:24:59.197Z,24.09
2022-08-07T18:27:50.454Z,24.05
2022-08-07T18:30:36.860Z,24.45
2022-08-07T18:33:18.780Z,24.42
2022-08-07T18:36:17.073Z,24.35
2022-08-07T18:40:08.819Z,23.99
2022-08-07T18:42:17.559Z,24.04
2022-08-07T18:45:44.365Z,24.19
2022-08-07T18:48:06.980Z,24.33
2022-08-07T18:51:15.678Z,24.55
2022-08-07T18:54:04.452Z,24.27
2022-08-07T18:56:39.273Z,24.00
2022-08-07T18:59:59.040Z,23.82
2022-08-07T19:02:56.608Z,23.70
2022-08-07T19:06:04.193Z,23.20
2022-08-07T19:08:52.347Z,22.26
2022-08-07T19:12:04.062Z,21.42
2022-08-07T19:14:53.819Z,21.15
2022-08-07T19:17:59.463Z,20.80
2022-08-07T19:21:46.629Z,20.34
2022-08-07T19:24:11.398Z,20.39
2022-08-07T19:28:58.666Z,20.50
2022-08-07T19:31:00.404Z,20.18
2022-08-07T19:33:00.576Z,19.92
2022-08-07T19:35:34.519Z,19.87
2022-08-07T19:38:16.731Z,19.67
2022-08-07T19:40:51.514Z,19.59
2022-08-07T19:43:50.076Z,19.63
2022-08-07T19:46:26.651Z,19.74
2022-08-07T19:49:06.873Z,19.78
2022-08-07T19:51:52.591Z,19.51
2022-08-07T19:54:31.282Z,19.41
2022-08-07T19:58:02.108Z,19.41
2022-08-07T20:00:08.887Z,19.73
2022-08-07T20:03:02.552Z,19.54
2022-08-07T20:06:00.351Z,19.23
2022-08-07T20:08:31.448Z,18.92
2022-08-07T20:11:14.992Z,19.14
2022-08-07T20:14:01.248Z,19.18
2022-08-07T20:16:36.651Z,19.36
2022-08-07T20:19:10.365Z,19.33
2022-08-07T20:21:48.303Z,19.27
2022-08-07T20:24:28.707Z,19.29
2022-08-07T20:27:05.266Z,19.29
2022-08-07T20:30:00.330Z,19.26
2022-08-07T20:32:45.372Z,19.22
2022-08-07T20:35:21.980Z,18.77
2022-08-07T20:37:59.789Z,18.33
2022-08-07T20:40:45.065Z,18.55
2022-08-07T20:43:26.645Z,18.08
2022-08-07T20:46:29.729Z,17.95
2022-08-07T20:49:55.100Z,18.08
2022-08-07T20:51:50.267Z,18.30
2022-08-07T20:54:29.688Z,17.89
2022-08-07T20:57:08.389Z,17.81
2022-08-07T21:00:07.107Z,18.01
2022-08-07T21:02:53.878Z,17.82
2022-08-07T21:05:51.461Z,18.29
2022-08-07T21:08:43.896Z,18.44
2022-08-07T21:11:22.036Z,18.48
2022-08-07T21:14:32.905Z,18.31
2022-08-07T21:18:03.823Z,18.16
2022-08-07T21:20:05.565Z,18.06
2022-08-07T21:22:45.019Z,18.41
2022-08-07T21:25:21.427Z,18.40
2022-08-07T21:28:09.049Z,18.64
2022-08-07T21:30:51.131Z,18.34
2022-08-07T21:33:41.362Z,18.24
2022-08-07T21:36:31.646Z,18.18
2022-08-07T21:39:45.357Z,18.35
2022-08-07T21:42:46.814Z,18.35
2022-08-07T21:46:09.794Z,18.47
2022-08-07T21:49:01.612Z,18.29
2022-08-07T21:51:51.363Z,18.33
2022-08-07T21:55:07.403Z,18.34
2022-08-07T21:58:02.323Z,17.76
2022-08-07T22:00:34.175Z,18.23
2022-08-07T22:03:31.981Z,17.97
2022-08-07T22:06:28.787Z,17.88
2022-08-07T22:09:26.583Z,18.23
2022-08-07T22:12:12.402Z,18.06
2022-08-07T22:15:04.094Z,17.96
2022-08-07T22:18:03.808Z,18.01
2022-08-07T22:20:51.776Z,17.97
2022-08-07T22:23:26.377Z,18.10
2022-08-07T22:26:32.121Z,18.32
2022-08-07T22:29:05.046Z,17.98
2022-08-07T22:31:59.230Z,18.15
2022-08-07T22:35:03.200Z,18.01
2022-08-07T22:38:06.211Z,17.90
2022-08-07T22:40:48.767Z,17.60
2022-08-07T22:43:31.452Z,17.70
2022-08-07T22:46:46.809Z,17.83
2022-08-07T22:49:54.903Z,17.38
2022-08-07T22:53:00.309Z,17.44
2022-08-07T22:55:49.560Z,17.57
2022-08-07T22:58:43.675Z,17.59
2022-08-07T23:01:49.994Z,17.44
2022-08-07T23:04:57.057Z,17.60
2022-08-07T23:07:46.453Z,17.85
2022-08-07T23:10:36.497Z,17.68
2022-08-07T23:13:29.128Z,17.87
2022-08-07T23:16:46.926Z,18.05
2022-08-07T23:19:52.158Z,18.14
2022-08-07T23:22:45.503Z,18.20
2022-08-07T23:25:44.373Z,18.26
2022-08-07T23:28:21.816Z,18.43
2022-08-07T23:31:18.827Z,18.47
2022-08-07T23:34:37.539Z,18.31
2022-08-07T23:37:29.355Z,18.21
2022-08-07T23:40:28.142Z,18.52
2022-08-07T23:43:37.626Z,17.99
2022-08-07T23:46:40.293Z,17.98
2022-08-07T23:49:25.022Z,18.23
2022-08-07T23:53:01.917Z,18.38
2022-08-07T23:55:52.739Z,18.76
2022-08-07T23:58:54.692Z,18.98
